Time;durP1;ratioP1;P1;durP2;ratioP2;P2;SDS_P1;SDS_P2;PMS_P1;PMS_P2;Temp;Humidity;BMP_temperature;BMP_pressure;BME280_temperature;BME280_humidity;BME280_pressure;Samples;Min_cycle;Max_cycle;Signal;HPM_P1;HPM_P2
2023/07/13 00:00:16;;;;;;;3.15;0.30;;;;;;;15.22;100.00;100708.28;5034345;28;20382;-56
2023/07/13 00:02:42;;;;;;;3.40;0.95;;;;;;;15.22;100.00;100718.97;5033419;28;20049;-55
2023/07/13 00:05:08;;;;;;;2.15;0.30;;;;;;;15.20;100.00;100719.16;5026202;28;20037;-57
2023/07/13 00:07:34;;;;;;;0.98;0.70;;;;;;;15.21;100.00;100722.69;5031288;28;20025;-58
2023/07/13 00:09:59;;;;;;;2.55;0.85;;;;;;;15.21;100.00;100717.34;5028628;28;20036;-57
2023/07/13 00:12:30;;;;;;;4.30;0.60;;;;;;;15.19;100.00;100724.75;5035045;28;20025;-59
2023/07/13 00:14:57;;;;;;;5.30;0.88;;;;;;;15.23;100.00;100720.59;5026578;28;20471;-62
2023/07/13 00:17:24;;;;;;;5.82;0.40;;;;;;;15.28;100.00;100726.09;5025853;28;20666;-62
2023/07/13 00:19:49;;;;;;;1.92;0.50;;;;;;;15.29;100.00;100718.94;5034875;28;20166;-58
2023/07/13 00:22:14;;;;;;;1.25;0.60;;;;;;;15.21;100.00;100717.34;5027104;28;20041;-53
2023/07/13 00:24:41;;;;;;;2.50;0.45;;;;;;;15.12;100.00;100723.97;5027391;28;20064;-57
2023/07/13 00:27:08;;;;;;;2.40;0.47;;;;;;;15.05;100.00;100718.69;5032882;28;20483;-57
2023/07/13 00:29:33;;;;;;;0.85;0.20;;;;;;;15.07;100.00;100719.25;5032331;28;20068;-58
2023/07/13 00:31:59;;;;;;;3.10;0.30;;;;;;;15.05;100.00;100719.50;5034663;28;21191;-64
2023/07/13 00:34:24;;;;;;;0.95;0.30;;;;;;;15.09;100.00;100724.41;5028721;28;20035;-55
2023/07/13 00:36:49;;;;;;;1.17;0.40;;;;;;;15.11;100.00;100722.34;5034210;28;20028;-58
2023/07/13 00:39:15;;;;;;;1.30;0.30;;;;;;;15.18;100.00;100718.59;5031257;28;20033;-54
2023/07/13 00:41:40;;;;;;;2.92;0.70;;;;;;;15.22;100.00;100724.31;5028359;28;20024;-54
2023/07/13 00:44:08;;;;;;;1.75;0.30;;;;;;;15.19;100.00;100714.88;5026228;28;20061;-58
2023/07/13 00:46:34;;;;;;;2.90;0.68;;;;;;;15.14;100.00;100719.22;5031084;28;20112;-54
2023/07/13 00:49:04;;;;;;;1.33;0.80;;;;;;;15.09;100.00;100729.75;5038059;28;20040;-59
2023/07/13 00:51:53;;;;;;;3.13;1.00;;;;;;;15.07;100.00;100715.78;5034745;28;20040;-56
2023/07/13 00:54:24;;;;;;;2.65;0.60;;;;;;;15.04;100.00;100720.50;5038871;28;20044;-56
2023/07/13 00:56:52;;;;;;;3.25;0.13;;;;;;;15.03;100.00;100721.56;5036113;28;20033;-58
2023/07/13 00:59:19;;;;;;;2.70;0.43;;;;;;;15.09;100.00;100724.41;5031134;28;20080;-59
2023/07/13 01:01:45;;;;;;;3.55;1.75;;;;;;;15.16;100.00;100719.84;5036266;28;20514;-56
2023/07/13 01:04:10;;;;;;;4.25;0.60;;;;;;;15.15;100.00;100718.19;5036570;28;20112;-59
2023/07/13 01:06:37;;;;;;;2.13;0.30;;;;;;;15.17;100.00;100716.13;5035409;28;20060;-55
2023/07/13 01:09:05;;;;;;;1.90;0.25;;;;;;;15.14;100.00;100722.72;5030125;28;20040;-51
2023/07/13 01:11:30;;;;;;;5.47;1.27;;;;;;;15.17;100.00;100732.16;5028210;28;20377;-58
2023/07/13 01:13:56;;;;;;;6.70;0.43;;;;;;;15.22;100.00;100726.97;5036685;28;20033;-61
2023/07/13 01:16:28;;;;;;;1.98;0.57;;;;;;;15.24;100.00;100723.06;5033589;28;20048;-55
2023/07/13 01:18:58;;;;;;;6.10;0.95;;;;;;;15.25;100.00;100721.19;5031650;28;20035;-49
2023/07/13 01:21:23;;;;;;;5.65;1.08;;;;;;;15.27;100.00;100727.16;5037638;28;20033;-52
2023/07/13 01:23:49;;;;;;;3.95;1.20;;;;;;;15.26;100.00;100725.53;5028091;28;20063;-55
2023/07/13 01:26:14;;;;;;;1.67;0.85;;;;;;;15.24;100.00;100723.06;5032436;28;20144;-56
2023/07/13 01:28:40;;;;;;;4.97;0.80;;;;;;;15.18;100.00;100723.09;5034065;28;20044;-55
2023/07/13 01:31:05;;;;;;;1.27;0.20;;;;;;;15.14;100.00;100721.91;5035127;28;20037;-54
2023/07/13 01:33:30;;;;;;;2.95;0.77;;;;;;;15.19;100.00;100730.09;5040018;28;20067;-54
2023/07/13 01:35:59;;;;;;;1.33;0.22;;;;;;;15.20;100.00;100729.03;5041257;28;20036;-57
2023/07/13 01:38:25;;;;;;;1.10;0.77;;;;;;;15.19;100.00;100727.41;5033256;28;20494;-53
2023/07/13 01:40:52;;;;;;;4.43;0.52;;;;;;;15.27;100.00;100711.13;5025590;28;20026;-56
2023/07/13 01:43:18;;;;;;;1.55;0.55;;;;;;;15.27;100.00;100717.28;5035407;28;20509;-57
2023/07/13 01:45:44;;;;;;;4.20;1.08;;;;;;;15.26;100.00;100714.84;5033341;28;20083;-58
2023/07/13 01:48:10;;;;;;;4.50;0.93;;;;;;;15.28;100.00;100712.75;5033531;28;20429;-59
2023/07/13 01:50:35;;;;;;;0.77;0.38;;;;;;;15.27;100.00;100717.28;5037316;28;20119;-56
2023/07/13 01:53:01;;;;;;;1.02;0.40;;;;;;;15.26;100.00;100707.66;5032432;28;20037;-55
2023/07/13 01:55:27;;;;;;;2.60;0.75;;;;;;;15.24;100.00;100706.22;5034200;28;20032;-57
2023/07/13 01:57:53;;;;;;;0.38;0.32;;;;;;;15.21;100.00;100720.00;5030397;28;20033;-60
2023/07/13 02:00:18;;;;;;;4.28;0.50;;;;;;;15.21;100.00;100715.47;5036644;28;20040;-57
2023/07/13 02:02:44;;;;;;;0.93;0.45;;;;;;;15.18;100.00;100717.75;5032879;28;20041;-58
2023/07/13 02:05:09;;;;;;;4.97;0.35;;;;;;;15.20;100.00;100723.69;5032419;28;20535;-54
2023/07/13 02:07:35;;;;;;;5.32;0.50;;;;;;;15.19;100.00;100722.06;5037746;28;20035;-55
2023/07/13 02:10:00;;;;;;;2.47;0.77;;;;;;;15.17;100.00;100716.13;5036145;28;20397;-56
2023/07/13 02:12:25;;;;;;;5.65;1.00;;;;;;;15.14;100.00;100720.03;5040298;28;20132;-57
2023/07/13 02:14:50;;;;;;;0.90;0.52;;;;;;;15.11;100.00;100722.34;5030332;28;20033;-57
2023/07/13 02:17:16;;;;;;;0.95;0.22;;;;;;;15.11;100.00;100712.47;5035710;28;20041;-57
2023/07/13 02:19:41;;;;;;;3.55;0.50;;;;;;;15.03;100.00;100718.88;5034324;28;20025;-54
2023/07/13 02:22:06;;;;;;;9.25;2.03;;;;;;;14.95;100.00;100711.13;5030939;28;20484;-60
2023/07/13 02:24:32;;;;;;;3.05;0.30;;;;;;;14.87;100.00;100711.38;5031443;28;20037;-58
2023/07/13 02:26:57;;;;;;;2.63;0.30;;;;;;;14.83;100.00;100716.31;5028757;28;20043;-56
2023/07/13 02:29:23;;;;;;;1.65;0.80;;;;;;;14.72;100.00;100717.00;5029139;28;20037;-60
2023/07/13 02:31:48;;;;;;;2.38;0.63;;;;;;;14.71;100.00;100718.00;5030324;28;20034;-57
2023/07/13 02:34:13;;;;;;;0.80;0.28;;;;;;;14.70;100.00;100713.72;5025549;28;20466;-57
2023/07/13 02:36:39;;;;;;;4.30;0.40;;;;;;;14.61;100.00;100705.13;5035961;28;20033;-57
2023/07/13 02:39:05;;;;;;;4.40;0.50;;;;;;;14.48;100.00;100717.66;5028969;28;20091;-59
2023/07/13 02:41:31;;;;;;;3.33;0.43;;;;;;;14.48;100.00;100707.00;5032819;28;20390;-52
2023/07/13 02:44:03;;;;;;;2.85;0.68;;;;;;;14.43;100.00;100720.97;5035512;28;20232;-59
2023/07/13 02:46:36;;;;;;;0.75;0.25;;;;;;;14.32;100.00;100718.94;5032038;28;20038;-58
2023/07/13 02:49:03;;;;;;;3.53;0.38;;;;;;;14.30;100.00;100723.66;5034617;28;20025;-60
2023/07/13 02:51:29;;;;;;;1.90;0.77;;;;;;;14.22;100.00;100718.56;5041632;28;20116;-60
2023/07/13 02:53:54;;;;;;;0.75;0.47;;;;;;;14.21;100.00;100715.09;5031038;28;20374;-56
2023/07/13 02:56:25;;;;;;;0.98;0.85;;;;;;;14.21;100.00;100723.09;5032081;28;20124;-58
2023/07/13 02:58:50;;;;;;;1.77;1.58;;;;;;;14.24;100.00;100729.84;5036999;28;20029;-57
2023/07/13 03:01:20;;;;;;;3.05;0.25;;;;;;;14.16;100.00;100729.03;5045596;28;20107;-47
2023/07/13 03:03:46;;;;;;;3.40;0.30;;;;;;;14.13;100.00;100729.47;5039003;28;20037;-55
2023/07/13 03:06:12;;;;;;;0.95;0.22;;;;;;;14.07;100.00;100732.13;5034945;28;20029;-54
2023/07/13 03:08:38;;;;;;;1.45;0.70;;;;;;;14.00;100.00;100732.16;5031531;28;20098;-54
2023/07/13 03:11:07;;;;;;;2.13;0.47;;;;;;;13.92;100.00;100737.72;5030114;28;20037;-53
2023/07/13 03:13:33;;;;;;;3.20;0.32;;;;;;;13.90;100.00;100743.22;5033549;28;20458;-57
2023/07/13 03:15:58;;;;;;;3.08;0.93;;;;;;;13.82;100.00;100742.63;5032950;28;20048;-56
2023/07/13 03:18:25;;;;;;;3.50;0.52;;;;;;;13.82;100.00;100742.63;5034572;28;20052;-58
2023/07/13 03:20:52;;;;;;;1.23;0.40;;;;;;;13.81;100.00;100738.31;5033472;28;20047;-57
2023/07/13 03:23:17;;;;;;;5.15;0.38;;;;;;;13.75;100.00;100743.44;5037958;28;20036;-56
2023/07/13 03:25:44;;;;;;;5.85;1.33;;;;;;;13.70;100.00;100737.09;5033035;28;20456;-61
2023/07/13 03:28:09;;;;;;;3.38;0.38;;;;;;;13.65;100.00;100745.69;5040048;28;20135;-57
2023/07/13 03:30:34;;;;;;;0.65;0.65;;;;;;;13.72;100.00;100748.38;5036505;28;20040;-59
2023/07/13 03:33:00;;;;;;;2.25;0.40;;;;;;;13.74;100.00;100751.66;5032516;28;20082;-58
2023/07/13 03:35:25;;;;;;;3.28;0.60;;;;;;;13.71;100.00;100752.06;5036452;28;20039;-57
2023/07/13 03:37:51;;;;;;;0.95;0.43;;;;;;;13.63;100.00;100745.09;5031040;28;20354;-57
2023/07/13 03:40:16;;;;;;;2.50;0.68;;;;;;;13.59;100.00;100749.19;5031083;28;20490;-55
2023/07/13 03:42:42;;;;;;;0.93;0.50;;;;;;;13.50;100.00;100747.72;5030614;28;20040;-56
2023/07/13 03:45:08;;;;;;;2.15;0.30;;;;;;;13.38;100.00;100754.69;5034652;28;20064;-58
2023/07/13 03:47:33;;;;;;;4.28;1.88;;;;;;;13.22;100.00;100756.69;5028736;28;20532;-59
2023/07/13 03:49:58;;;;;;;1.65;0.60;;;;;;;13.19;100.00;100764.25;5031981;28;20432;-59
2023/07/13 03:52:24;;;;;;;4.65;0.43;;;;;;;13.19;100.00;100764.25;5030955;28;20061;-55
2023/07/13 03:54:49;;;;;;;1.23;0.15;;;;;;;13.17;100.00;100771.63;5030649;28;20025;-57
2023/07/13 03:57:14;;;;;;;2.60;0.30;;;;;;;13.17;100.00;100777.78;5038356;28;20415;-57
2023/07/13 03:59:40;;;;;;;1.75;0.38;;;;;;;13.19;100.00;100778.41;5036530;28;20048;-56
2023/07/13 04:02:05;;;;;;;0.82;0.30;;;;;;;13.27;100.00;100785.41;5031935;28;20072;-55
2023/07/13 04:04:30;;;;;;;0.90;0.40;;;;;;;13.44;100.00;100785.84;5043932;28;20079;-57
2023/07/13 04:06:58;;;;;;;4.03;0.38;;;;;;;13.50;100.00;100779.69;5039803;28;20354;-57
2023/07/13 04:09:24;;;;;;;0.20;0.20;;;;;;;13.51;100.00;100784.00;5034006;28;20037;-56
2023/07/13 04:11:50;;;;;;;1.33;0.35;;;;;;;13.47;100.00;100772.13;5031640;28;20039;-54
2023/07/13 04:14:15;;;;;;;0.73;0.60;;;;;;;13.47;100.00;100778.25;5033853;28;20029;-50
2023/07/13 04:16:41;;;;;;;3.47;0.50;;;;;;;13.50;100.00;100779.69;5031775;28;20804;-54
2023/07/13 04:19:07;;;;;;;1.27;0.65;;;;;;;13.48;100.00;100785.25;5033899;28;20036;-55
2023/07/13 04:21:33;;;;;;;2.58;0.50;;;;;;;13.47;100.00;100777.44;5032192;28;20482;-53
2023/07/13 04:23:58;;;;;;;1.25;0.90;;;;;;;13.47;100.00;100785.44;5035892;28;20083;-54
2023/07/13 04:26:24;;;;;;;2.10;0.47;;;;;;;13.49;100.00;100788.72;5032629;28;20983;-55
2023/07/13 04:28:50;;;;;;;4.65;0.35;;;;;;;13.51;100.00;100792.81;5037116;28;21132;-53
2023/07/13 04:31:16;;;;;;;3.25;0.57;;;;;;;13.49;100.00;100794.03;5033757;28;20075;-54
2023/07/13 04:33:42;;;;;;;7.63;0.52;;;;;;;13.41;100.00;100795.06;5036228;28;20124;-53
2023/07/13 04:36:09;;;;;;;0.80;0.32;;;;;;;13.36;100.00;100786.84;5036961;28;20120;-55
2023/07/13 04:38:35;;;;;;;1.75;0.38;;;;;;;13.33;100.00;100795.25;5034259;28;20041;-54
2023/07/13 04:41:03;;;;;;;4.53;0.70;;;;;;;13.34;100.00;100794.22;5040428;28;20267;-57
2023/07/13 04:43:30;;;;;;;4.50;1.00;;;;;;;13.37;100.00;100790.31;5040827;28;20025;-56
2023/07/13 04:45:56;;;;;;;1.25;0.50;;;;;;;13.41;100.00;100786.25;5037252;28;20387;-55
2023/07/13 04:48:22;;;;;;;3.03;0.52;;;;;;;13.38;100.00;100790.13;5037504;28;20032;-56
2023/07/13 04:50:47;;;;;;;1.90;1.38;;;;;;;13.35;100.00;100795.06;5035532;28;20036;-58
2023/07/13 04:53:14;;;;;;;3.80;0.85;;;;;;;13.32;100.00;100790.97;5032910;28;20021;-55
2023/07/13 04:55:40;;;;;;;4.07;0.50;;;;;;;13.30;100.00;100798.31;5034796;28;20029;-53
2023/07/13 04:58:05;;;;;;;2.63;0.82;;;;;;;13.26;100.00;100802.34;5032808;28;20469;-53
2023/07/13 05:00:31;;;;;;;2.35;1.00;;;;;;;13.24;100.00;100807.06;5039750;28;20029;-52
2023/07/13 05:02:58;;;;;;;0.98;0.52;;;;;;;13.27;100.00;100812.03;5037900;28;20045;-51
2023/07/13 05:05:24;;;;;;;2.50;0.55;;;;;;;13.27;100.00;100812.84;5035495;28;20074;-57
2023/07/13 05:07:50;;;;;;;2.47;0.63;;;;;;;13.34;100.00;100802.19;5034797;28;20102;-51
2023/07/13 05:10:15;;;;;;;2.40;0.40;;;;;;;13.34;100.00;100814.72;5040354;28;20409;-53
2023/07/13 05:12:41;;;;;;;0.80;0.57;;;;;;;13.43;100.00;100816.16;5043186;28;20029;-54
2023/07/13 05:15:07;;;;;;;5.20;0.35;;;;;;;13.49;100.00;100815.34;5038232;28;20053;-51
2023/07/13 05:17:33;;;;;;;5.65;0.35;;;;;;;13.58;100.00;100818.63;5038492;28;20117;-54
2023/07/13 05:19:59;;;;;;;5.35;0.70;;;;;;;13.62;100.00;100823.38;5041179;28;20482;-51
2023/07/13 05:22:24;;;;;;;4.13;0.70;;;;;;;13.67;100.00;100826.25;5041268;28;20040;-54
2023/07/13 05:24:49;;;;;;;1.42;0.55;;;;;;;13.74;100.00;100832.41;5039736;28;20025;-52
2023/07/13 05:27:15;;;;;;;0.75;0.20;;;;;;;13.85;100.00;100824.84;5041227;28;20041;-52
2023/07/13 05:29:40;;;;;;;1.40;0.32;;;;;;;14.00;100.00;100837.97;5041580;28;20441;-51
2023/07/13 05:32:06;;;;;;;1.77;0.45;;;;;;;14.10;100.00;100836.53;5033392;28;20445;-51
2023/07/13 05:34:31;;;;;;;1.55;0.35;;;;;;;14.14;100.00;100828.94;5038020;28;20028;-54
2023/07/13 05:36:57;;;;;;;1.13;0.68;;;;;;;14.21;100.00;100828.94;5032818;28;20035;-53
2023/07/13 05:39:22;;;;;;;2.97;1.27;;;;;;;14.28;100.00;100835.91;5029130;28;20577;-56
2023/07/13 05:41:48;;;;;;;2.20;0.43;;;;;;;14.35;100.00;100835.88;5031195;28;20064;-56
2023/07/13 05:44:13;;;;;;;0.55;0.47;;;;;;;14.53;100.00;100830.78;5038407;28;20044;-57
2023/07/13 05:46:39;;;;;;;2.95;0.20;;;;;;;14.78;100.00;100833.56;5030320;28;20028;-55
2023/07/13 05:49:04;;;;;;;2.50;1.45;;;;;;;15.04;100.00;100831.84;5037419;28;20037;-56
2023/07/13 05:51:30;;;;;;;0.55;0.30;;;;;;;15.27;100.00;100834.00;5035939;28;20099;-55
2023/07/13 05:53:55;;;;;;;0.30;0.30;;;;;;;15.33;100.00;100827.78;5040705;28;20056;-50
2023/07/13 05:56:21;;;;;;;0.32;0.20;;;;;;;15.53;100.00;100829.56;5038636;28;20037;-55
2023/07/13 05:58:48;;;;;;;1.95;0.20;;;;;;;15.67;100.00;100828.44;5037252;28;20060;-50
2023/07/13 06:01:15;;;;;;;1.35;0.40;;;;;;;15.80;100.00;100825.69;5031819;28;20044;-53
2023/07/13 06:03:41;;;;;;;2.15;0.45;;;;;;;15.87;100.00;100826.44;5035508;28;20044;-55
2023/07/13 06:06:08;;;;;;;6.13;0.75;;;;;;;15.94;100.00;100826.41;5034592;28;20029;-59
2023/07/13 06:08:34;;;;;;;0.30;0.17;;;;;;;16.00;100.00;100825.53;5036250;28;20029;-56
2023/07/13 06:11:04;;;;;;;1.75;0.38;;;;;;;16.11;100.00;100829.38;5031962;28;20044;-55
2023/07/13 06:13:29;;;;;;;2.95;0.57;;;;;;;16.23;100.00;100821.44;5033232;28;20124;-52
2023/07/13 06:15:55;;;;;;;0.95;0.50;;;;;;;16.36;100.00;100827.47;5028109;28;20063;-49
2023/07/13 06:18:20;;;;;;;3.28;0.45;;;;;;;16.36;100.00;100827.47;5039614;28;20112;-56
2023/07/13 06:20:45;;;;;;;4.35;0.57;;;;;;;16.36;100.00;100832.00;5027487;28;20160;-51
2023/07/13 06:23:10;;;;;;;3.15;0.55;;;;;;;16.35;100.00;100839.22;5029292;28;20111;-53
2023/07/13 06:25:36;;;;;;;1.50;0.20;;;;;;;16.47;100.00;100833.13;5032044;28;20421;-54
2023/07/13 06:28:02;;;;;;;2.35;0.50;;;;;;;16.63;100.00;100832.56;5034511;28;20198;-55
2023/07/13 06:30:27;;;;;;;2.38;0.20;;;;;;;16.74;100.00;100821.09;5042103;28;20036;-60
2023/07/13 06:32:53;;;;;;;3.20;0.40;;;;;;;16.84;100.00;100827.84;5038202;28;20514;-53
2023/07/13 06:35:18;;;;;;;0.50;0.15;;;;;;;16.97;100.00;100825.00;5033070;28;20029;-57
2023/07/13 06:37:44;;;;;;;1.70;0.45;;;;;;;17.11;100.00;100831.81;5034691;28;20045;-57
2023/07/13 06:40:09;;;;;;;4.18;0.55;;;;;;;17.18;100.00;100824.53;5029155;28;20448;-58
2023/07/13 06:42:35;;;;;;;3.90;0.40;;;;;;;17.21;100.00;100823.25;5039720;28;20393;-58
2023/07/13 06:45:00;;;;;;;4.28;0.70;;;;;;;17.21;100.00;100829.41;5031688;28;20442;-56
2023/07/13 06:47:26;;;;;;;1.50;0.20;;;;;;;17.24;100.00;100830.81;5036969;28;20029;-58
2023/07/13 06:49:52;;;;;;;2.00;0.47;;;;;;;17.00;100.00;100837.94;5032701;28;20099;-55
2023/07/13 06:52:17;;;;;;;4.93;0.50;;;;;;;17.03;100.00;100844.72;5025996;28;20029;-51
2023/07/13 06:54:42;;;;;;;2.28;0.50;;;;;;;17.14;100.00;100850.13;5025916;28;20154;-63
2023/07/13 06:57:08;;;;;;;1.70;0.38;;;;;;;17.28;100.00;100845.41;5026532;28;20037;-54
2023/07/13 06:59:33;;;;;;;1.58;0.38;;;;;;;17.39;100.00;100852.69;5029777;28;20025;-57
2023/07/13 07:01:58;;;;;;;3.95;0.60;;;;;;;17.47;100.00;100840.81;5033914;28;20044;-65
2023/07/13 07:04:24;;;;;;;2.20;0.40;;;;;;;17.60;100.00;100837.94;5036848;28;20033;-59
2023/07/13 07:06:49;;;;;;;3.47;0.50;;;;;;;17.67;100.00;100837.88;5043703;28;20124;-55
2023/07/13 07:09:16;;;;;;;1.02;0.10;;;;;;;18.13;100.00;100835.53;5028994;28;20033;-58
2023/07/13 07:11:42;;;;;;;0.55;0.25;;;;;;;18.44;100.00;100839.75;5031472;28;20082;-53
2023/07/13 07:14:07;;;;;;;0.77;0.73;;;;;;;18.26;100.00;100838.00;5039204;28;20116;-55
2023/07/13 07:16:33;;;;;;;4.88;1.10;;;;;;;18.39;100.00;100842.31;5035045;28;20041;-57
2023/07/13 07:18:58;;;;;;;3.92;0.80;;;;;;;18.54;100.00;100842.66;5038836;28;20387;-62
2023/07/13 07:21:23;;;;;;;4.72;0.30;;;;;;;18.85;100.00;100837.97;5031853;28;20025;-57
2023/07/13 07:23:49;;;;;;;2.47;0.60;;;;;;;19.06;100.00;100833.81;5041504;28;20431;-65
2023/07/13 07:26:15;;;;;;;0.93;0.82;;;;;;;18.71;100.00;100832.00;5024952;28;20545;-51
2023/07/13 07:28:40;;;;;;;2.33;0.20;;;;;;;18.67;100.00;100836.22;5030115;28;20029;-53
2023/07/13 07:31:06;;;;;;;1.17;0.60;;;;;;;18.79;100.00;100842.41;5025580;28;20039;-51
2023/07/13 07:33:33;;;;;;;2.70;0.40;;;;;;;18.81;100.00;100834.91;5026481;28;20615;-54
2023/07/13 07:35:58;;;;;;;4.43;0.32;;;;;;;18.72;100.00;100839.00;5035186;28;20059;-64
2023/07/13 07:38:24;;;;;;;4.82;1.15;;;;;;;18.72;100.00;100842.50;5030221;28;20056;-60
2023/07/13 07:40:49;;;;;;;0.47;0.20;;;;;;;18.62;100.00;100846.84;5027963;28;20112;-60
2023/07/13 07:43:14;;;;;;;1.85;0.68;;;;;;;18.64;100.00;100856.31;5030264;28;20025;-62
2023/07/13 07:45:40;;;;;;;0.65;0.30;;;;;;;18.82;100.00;100863.44;5033487;28;20119;-59
2023/07/13 07:48:06;;;;;;;0.35;0.20;;;;;;;18.90;100.00;100857.69;5030659;28;20231;-62
2023/07/13 07:50:32;;;;;;;0.90;0.20;;;;;;;19.10;100.00;100861.81;5034118;28;20075;-59
2023/07/13 07:52:57;;;;;;;1.60;0.20;;;;;;;18.99;100.00;100854.63;5041240;28;20758;-60
2023/07/13 07:55:25;;;;;;;3.60;0.75;;;;;;;19.13;100.00;100859.50;5040456;28;20549;-52
2023/07/13 07:57:51;;;;;;;1.50;0.32;;;;;;;19.08;100.00;100858.59;5024632;28;20033;-52
2023/07/13 08:00:17;;;;;;;4.32;0.40;;;;;;;19.16;100.00;100867.09;5032484;28;20029;-58
2023/07/13 08:02:43;;;;;;;0.30;0.30;;;;;;;19.17;100.00;100870.59;5026748;28;20041;-67
2023/07/13 08:05:09;;;;;;;2.80;0.40;;;;;;;19.08;100.00;100869.34;5032307;28;20036;-57
2023/07/13 08:07:38;;;;;;;3.50;0.55;;;;;;;19.03;100.00;100866.53;5030394;28;20086;-56
2023/07/13 08:10:05;;;;;;;1.83;0.43;;;;;;;19.09;100.00;100865.59;5031218;28;20037;-53
2023/07/13 08:12:34;;;;;;;0.77;0.45;;;;;;;18.91;100.00;100864.69;5040248;28;20017;-66
2023/07/13 08:15:00;;;;;;;3.97;0.50;;;;;;;18.94;100.00;100861.53;5035782;28;20385;-63
2023/07/13 08:17:26;;;;;;;0.75;0.32;;;;;;;18.99;100.00;100863.50;5034093;28;20714;-58
2023/07/13 08:19:51;;;;;;;1.92;0.50;;;;;;;19.13;100.00;100861.38;5035481;28;20033;-50
2023/07/13 08:22:16;;;;;;;4.28;0.60;;;;;;;19.24;100.00;100862.41;5040017;28;20072;-54
2023/07/13 08:24:42;;;;;;;2.63;0.32;;;;;;;19.42;100.00;100861.38;5044540;28;20111;-55
2023/07/13 08:27:08;;;;;;;2.15;0.20;;;;;;;19.51;100.00;100854.56;5028555;28;20091;-54
2023/07/13 08:29:33;;;;;;;2.92;0.30;;;;;;;19.55;100.00;100855.72;5039992;28;20071;-51
2023/07/13 08:31:59;;;;;;;0.30;0.00;;;;;;;19.47;100.00;100854.22;5038406;28;20460;-60
2023/07/13 08:34:24;;;;;;;2.60;0.28;;;;;;;19.23;100.00;100856.16;5026332;28;20021;-69
2023/07/13 08:36:50;;;;;;;3.97;0.43;;;;;;;19.04;100.00;100863.59;5038201;28;20493;-54
2023/07/13 08:39:15;;;;;;;3.08;0.47;;;;;;;19.04;100.00;100862.78;5031533;28;21855;-51
2023/07/13 08:41:40;;;;;;;2.30;0.20;;;;;;;19.37;100.00;100854.03;5023865;28;20040;-50
2023/07/13 08:44:19;;;;;;;1.25;0.15;;;;;;;19.71;100.00;100852.25;5042366;28;20861;-60
2023/07/13 08:46:45;;;;;;;3.40;0.70;;;;;;;20.00;100.00;100849.50;5034048;28;20497;-57
2023/07/13 08:49:14;;;;;;;0.63;0.10;;;;;;;20.39;100.00;100842.28;5030255;28;20144;-63
2023/07/13 08:52:08;;;;;;;1.65;0.40;;;;;;;20.56;100.00;100847.69;5027235;28;20041;-58
2023/07/13 08:54:42;;;;;;;1.88;0.52;;;;;;;20.59;100.00;100843.69;5028818;28;20119;-51
2023/07/13 08:57:14;;;;;;;1.30;0.13;;;;;;;20.76;100.00;100852.53;5035062;28;20425;-51
2023/07/13 08:59:40;;;;;;;0.98;0.10;;;;;;;20.69;100.00;100846.50;5034274;28;20157;-51
2023/07/13 09:02:34;;;;;;;3.03;0.52;;;;;;;20.84;100.00;100843.22;5039155;28;21027;-57
2023/07/13 09:05:03;;;;;;;3.25;0.40;;;;;;;21.06;100.00;100853.97;5032698;28;20414;-52
2023/07/13 09:07:34;;;;;;;1.17;0.08;;;;;;;21.29;100.00;100845.59;5036169;28;20086;-61
2023/07/13 09:10:12;;;;;;;2.40;0.20;;;;;;;21.35;100.00;100844.59;5031472;28;20538;-48
2023/07/13 09:13:15;;;;;;;0.93;0.30;;;;;;;21.42;100.00;100843.63;5035247;28;20045;-57
2023/07/13 09:15:44;;;;;;;5.57;0.52;;;;;;;21.25;100.00;100847.19;5032232;28;20061;-53
2023/07/13 09:18:35;;;;;;;1.75;0.10;;;;;;;21.02;100.00;100850.97;5034976;28;20033;-59
2023/07/13 09:21:14;;;;;;;1.80;0.20;;;;;;;20.83;100.00;100846.94;5037098;28;20670;-56
2023/07/13 09:23:40;;;;;;;1.75;0.88;;;;;;;20.67;100.00;100843.25;5030519;28;20571;-49
2023/07/13 09:26:21;;;;;;;3.10;0.32;;;;;;;20.54;100.00;100841.72;5030188;28;20025;-52
2023/07/13 09:29:12;;;;;;;0.73;0.10;;;;;;;20.63;100.00;100847.53;5030042;28;20026;-49
2023/07/13 09:31:50;;;;;;;1.63;0.45;;;;;;;20.62;100.00;100856.66;5032668;28;20049;-50
2023/07/13 09:34:16;;;;;;;1.75;0.20;;;;;;;20.45;100.00;100851.28;5034599;28;20033;-46
2023/07/13 09:36:42;;;;;;;1.38;0.85;;;;;;;20.47;100.00;100854.53;5033625;28;20543;-46
2023/07/13 09:39:07;;;;;;;3.45;0.20;;;;;;;20.81;100.00;100857.19;5027848;28;20052;-55
2023/07/13 09:41:35;;;;;;;1.83;0.10;;;;;;;21.18;100.00;100849.28;5042300;28;20051;-47
2023/07/13 09:44:11;;;;;;;0.60;0.08;;;;;;;21.61;100.00;100846.75;5038410;28;20289;-57
2023/07/13 09:46:39;;;;;;;1.13;0.10;;;;;;;21.67;100.00;100846.56;5035981;28;20462;-52
2023/07/13 09:49:04;;;;;;;4.85;0.17;;;;;;;21.77;100.00;100845.84;5031222;28;20064;-56
2023/07/13 09:51:30;;;;;;;1.27;0.10;;;;;;;21.80;100.00;100845.31;5031787;28;20501;-57
2023/07/13 09:53:56;;;;;;;1.13;0.30;;;;;;;21.80;100.00;100844.53;5029086;28;20030;-55
2023/07/13 09:56:26;;;;;;;1.25;0.20;;;;;;;21.82;100.00;100845.09;5026715;28;20395;-55
2023/07/13 09:58:53;;;;;;;0.30;0.13;;;;;;;21.90;100.00;100850.81;5039963;28;20097;-56
2023/07/13 10:01:35;;;;;;;1.08;0.10;;;;;;;22.06;100.00;100854.44;5027399;28;20158;-52
2023/07/13 10:04:01;;;;;;;1.98;0.32;;;;;;;21.92;100.00;100848.69;5033615;28;20121;-55
2023/07/13 10:06:27;;;;;;;0.32;0.25;;;;;;;21.51;100.00;100845.59;5031843;28;20164;-59
2023/07/13 10:08:55;;;;;;;0.95;0.05;;;;;;;21.48;100.00;100848.81;5028791;28;20463;-50
2023/07/13 10:11:26;;;;;;;2.05;0.52;;;;;;;21.25;100.00;100851.78;5033523;28;20040;-50
2023/07/13 10:14:17;;;;;;;1.00;0.10;;;;;;;20.91;100.00;100854.63;5034097;28;20422;-66
2023/07/13 10:16:45;;;;;;;0.57;0.17;;;;;;;20.63;100.00;100851.03;5026890;28;20033;-50
2023/07/13 10:19:25;;;;;;;1.45;0.30;;;;;;;20.35;100.00;100868.09;5030689;28;20040;-64
2023/07/13 10:21:59;;;;;;;2.03;0.80;;;;;;;20.18;100.00;100868.09;5025436;28;20437;-59
2023/07/13 10:24:29;;;;;;;0.25;0.25;;;;;;;20.20;100.00;100870.56;5027487;28;20045;-50
2023/07/13 10:27:04;;;;;;;1.27;0.10;;;;;;;20.30;100.00;100873.41;5025384;28;20442;-54
2023/07/13 10:29:34;;;;;;;2.28;0.75;;;;;;;20.65;100.00;100873.16;5031351;28;20039;-54
2023/07/13 10:32:00;;;;;;;1.75;0.20;;;;;;;21.12;100.00;100871.84;5028787;28;20111;-59
2023/07/13 10:34:26;;;;;;;0.63;0.47;;;;;;;21.52;100.00;100871.50;5040067;28;20075;-53
2023/07/13 10:36:51;;;;;;;0.75;0.28;;;;;;;21.60;100.00;100861.31;5033184;28;20407;-58
2023/07/13 10:39:20;;;;;;;2.58;0.30;;;;;;;21.45;100.00;100865.53;5032627;28;20044;-56
2023/07/13 10:41:52;;;;;;;3.42;0.20;;;;;;;21.66;100.00;100863.00;5028762;28;20116;-57
2023/07/13 10:44:26;;;;;;;1.83;0.10;;;;;;;21.77;100.00;100868.25;5037164;28;20056;-57
2023/07/13 10:46:57;;;;;;;1.67;0.10;;;;;;;21.35;100.00;100862.69;5036897;28;20200;-65
2023/07/13 10:49:23;;;;;;;;;;;;;;;21.68;100.00;100877.06;5030905;28;20486;-64
2023/07/13 10:51:48;;;;;;;1.98;0.10;;;;;;;21.38;100.00;100866.75;5031250;28;19928;-64
2023/07/13 10:54:18;;;;;;;0.22;0.05;;;;;;;21.48;100.00;100861.50;5031601;28;20436;-56
2023/07/13 10:56:45;;;;;;;1.42;0.32;;;;;;;21.93;100.00;100860.28;5032172;28;20159;-50
2023/07/13 10:59:25;;;;;;;1.00;0.25;;;;;;;22.42;100.00;100863.63;5042627;28;20368;-59
2023/07/13 11:01:56;;;;;;;1.27;0.10;;;;;;;22.77;100.00;100859.53;5036610;28;20052;-54
2023/07/13 11:04:23;;;;;;;0.20;0.17;;;;;;;22.61;100.00;100864.03;5043231;28;20506;-62
2023/07/13 11:06:52;;;;;;;1.48;0.40;;;;;;;22.77;100.00;100864.94;5037741;28;20056;-53
2023/07/13 11:09:37;;;;;;;0.30;0.25;;;;;;;23.06;100.00;100859.13;5030865;28;20067;-56
2023/07/13 11:12:09;;;;;;;0.77;0.00;;;;;;;23.18;100.00;100865.13;5030461;28;20039;-56
2023/07/13 11:14:43;;;;;;;0.55;0.13;;;;;;;23.34;100.00;100862.44;5028799;28;20457;-63
2023/07/13 11:17:29;;;;;;;1.65;0.20;;;;;;;23.10;100.00;100856.69;5033387;28;20026;-51